createdAt,value
2023-03-17T00:01:25.976Z,14.50
2023-03-17T00:03:55.463Z,14.27
2023-03-17T00:06:27.862Z,14.57
2023-03-17T00:08:57.631Z,12.00
2023-03-17T00:11:27.051Z,13.93
2023-03-17T00:13:55.845Z,14.60
2023-03-17T00:16:27.275Z,13.13
2023-03-17T00:18:56.431Z,18.03
2023-03-17T00:21:26.670Z,14.70
2023-03-17T00:23:56.340Z,13.20
2023-03-17T00:26:24.979Z,12.80
2023-03-17T00:28:54.448Z,14.73
2023-03-17T00:31:24.489Z,16.17
2023-03-17T00:33:56.640Z,14.93
2023-03-17T00:36:25.775Z,14.03
2023-03-17T00:38:54.455Z,16.17
2023-03-17T00:41:22.994Z,16.40
2023-03-17T00:43:51.718Z,16.27
2023-03-17T00:46:23.440Z,16.80
2023-03-17T00:48:51.865Z,14.27
2023-03-17T00:51:22.094Z,13.37
2023-03-17T00:53:50.623Z,16.53
2023-03-17T00:56:19.940Z,14.03
2023-03-17T00:58:48.879Z,18.63
2023-03-17T01:01:18.458Z,13.80
2023-03-17T01:03:49.130Z,15.57
2023-03-17T01:06:18.639Z,14.33
2023-03-17T01:08:48.546Z,11.67
2023-03-17T01:11:18.709Z,12.80
2023-03-17T01:13:49.380Z,15.50
2023-03-17T01:16:18.388Z,13.83
2023-03-17T01:18:46.855Z,18.00
2023-03-17T01:21:15.462Z,16.00
2023-03-17T01:23:44.059Z,12.77
2023-03-17T01:26:13.736Z,15.57
2023-03-17T01:28:42.353Z,16.40
2023-03-17T01:31:10.722Z,16.77
2023-03-17T01:33:39.361Z,16.83
2023-03-17T01:36:08.310Z,16.93
2023-03-17T01:38:37.648Z,17.03
2023-03-17T01:41:06.449Z,17.93
2023-03-17T01:43:36.614Z,18.67
2023-03-17T01:46:27.487Z,21.50
2023-03-17T01:49:09.433Z,14.60
2023-03-17T01:51:40.507Z,14.50
2023-03-17T01:54:11.364Z,14.13
2023-03-17T01:56:42.043Z,15.57
2023-03-17T01:59:14.267Z,14.23
2023-03-17T02:01:45.632Z,16.97
2023-03-17T02:04:14.353Z,16.80
2023-03-17T02:06:56.825Z,16.67
2023-03-17T02:09:26.384Z,18.00
2023-03-17T02:11:55.630Z,16.07
2023-03-17T02:14:25.601Z,15.40
2023-03-17T02:16:54.047Z,19.27
2023-03-17T02:19:22.458Z,19.87
2023-03-17T02:21:53.349Z,14.90
2023-03-17T02:24:23.965Z,14.37
2023-03-17T02:26:54.122Z,15.53
2023-03-17T02:29:23.463Z,16.83
2023-03-17T02:31:52.264Z,15.40
2023-03-17T02:34:21.158Z,16.40
2023-03-17T02:36:49.623Z,14.53
2023-03-17T02:39:19.440Z,14.27
2023-03-17T02:41:48.639Z,17.07
2023-03-17T02:44:17.212Z,15.53
2023-03-17T02:46:45.601Z,18.03
2023-03-17T02:49:14.377Z,15.97
2023-03-17T02:51:43.025Z,16.13
2023-03-17T02:54:11.609Z,16.20
2023-03-17T02:56:41.965Z,16.50
2023-03-17T02:59:10.678Z,18.37
2023-03-17T03:01:39.927Z,17.07
2023-03-17T03:04:08.771Z,15.03
2023-03-17T03:06:39.752Z,11.70
2023-03-17T03:09:08.183Z,16.07
2023-03-17T03:11:36.628Z,18.50
2023-03-17T03:14:06.966Z,14.43
2023-03-17T03:16:35.395Z,18.00
2023-03-17T03:19:03.914Z,17.10
2023-03-17T03:21:32.316Z,18.63
2023-03-17T03:24:00.779Z,16.93
2023-03-17T03:26:29.145Z,16.03
2023-03-17T03:28:59.919Z,18.43
2023-03-17T03:31:29.966Z,13.87
2023-03-17T03:33:58.427Z,16.87
2023-03-17T03:36:27.487Z,16.90
2023-03-17T03:38:56.035Z,17.47
2023-03-17T03:41:24.434Z,14.43
2023-03-17T03:43:53.720Z,17.60
2023-03-17T03:46:22.109Z,14.83
2023-03-17T03:48:52.009Z,16.07
2023-03-17T03:51:20.492Z,16.63
2023-03-17T03:53:49.262Z,15.30
2023-03-17T03:56:17.933Z,20.33
2023-03-17T03:58:46.512Z,17.20
2023-03-17T04:01:14.968Z,17.60
2023-03-17T04:03:43.350Z,14.27
2023-03-17T04:06:13.136Z,16.50
2023-03-17T04:08:41.623Z,16.57
2023-03-17T04:11:10.028Z,15.13
2023-03-17T04:13:38.926Z,16.47
2023-03-17T04:16:07.612Z,14.90
2023-03-17T04:18:36.590Z,15.07
2023-03-17T04:21:05.008Z,12.80
2023-03-17T04:23:34.997Z,13.67
2023-03-17T04:26:04.098Z,15.30
2023-03-17T04:28:32.650Z,17.83
2023-03-17T04:31:01.507Z,16.40
2023-03-17T04:33:30.083Z,18.20
2023-03-17T04:35:58.620Z,16.07
2023-03-17T04:38:27.413Z,17.00
2023-03-17T04:40:57.185Z,16.83
2023-03-17T04:43:25.812Z,15.30
2023-03-17T04:45:54.283Z,15.80
2023-03-17T04:48:22.906Z,15.23
2023-03-17T04:50:51.458Z,15.27
2023-03-17T04:53:20.071Z,14.63
2023-03-17T04:55:48.442Z,15.17
2023-03-17T04:58:29.838Z,17.50
2023-03-17T05:00:59.442Z,17.53
2023-03-17T05:03:28.663Z,15.37
2023-03-17T05:05:57.576Z,12.50
2023-03-17T05:08:26.377Z,17.40
2023-03-17T05:10:54.858Z,19.30
2023-03-17T05:13:25.089Z,15.23
2023-03-17T05:15:54.503Z,15.23
2023-03-17T05:18:24.061Z,19.83
2023-03-17T05:20:52.465Z,15.07
2023-03-17T05:23:22.297Z,12.53
2023-03-17T05:25:51.034Z,14.33
2023-03-17T05:28:21.058Z,17.27
2023-03-17T05:30:52.116Z,15.77
2023-03-17T05:33:21.655Z,14.23
2023-03-17T05:35:51.210Z,16.43
2023-03-17T05:38:19.731Z,17.23
2023-03-17T05:40:50.736Z,15.73
2023-03-17T05:43:19.439Z,14.63
2023-03-17T05:45:50.557Z,17.10
2023-03-17T05:48:20.419Z,18.17
2023-03-17T05:50:49.237Z,18.73
2023-03-17T05:53:18.738Z,16.43
2023-03-17T05:55:47.949Z,13.50
2023-03-17T05:58:17.086Z,14.10
2023-03-17T06:00:45.578Z,14.37
2023-03-17T06:03:14.060Z,18.93
2023-03-17T06:05:44.010Z,15.37
2023-03-17T06:08:13.018Z,15.10
2023-03-17T06:10:41.490Z,13.73
2023-03-17T06:13:11.105Z,15.10
2023-03-17T06:15:39.494Z,16.77
2023-03-17T06:18:08.113Z,12.87
2023-03-17T06:20:36.774Z,14.87
2023-03-17T06:23:07.133Z,12.67
2023-03-17T06:25:37.079Z,12.97
2023-03-17T06:28:06.505Z,9.53
2023-03-17T06:30:36.766Z,11.87
2023-03-17T06:33:09.388Z,9.93
2023-03-17T06:35:38.274Z,13.80
2023-03-17T06:38:08.136Z,9.40
2023-03-17T06:40:37.022Z,10.27
2023-03-17T06:43:05.475Z,9.47
2023-03-17T06:45:34.216Z,9.87
2023-03-17T06:48:02.734Z,9.73
2023-03-17T06:50:31.263Z,9.73
2023-03-17T06:52:59.909Z,10.10
2023-03-17T06:55:29.976Z,9.87
2023-03-17T06:57:58.946Z,10.43
2023-03-17T07:00:27.647Z,9.43
2023-03-17T07:02:56.094Z,9.93
2023-03-17T07:05:24.690Z,7.57
2023-03-17T07:07:53.310Z,8.40
2023-03-17T07:10:23.145Z,9.40
2023-03-17T07:12:53.258Z,10.83
2023-03-17T07:15:22.064Z,6.97
2023-03-17T07:17:50.558Z,9.43
2023-03-17T07:20:20.286Z,7.03
2023-03-17T07:22:48.780Z,10.60
2023-03-17T07:25:17.537Z,11.00
2023-03-17T07:27:45.964Z,8.73
2023-03-17T07:30:19.078Z,6.20
2023-03-17T07:32:47.941Z,7.38
2023-03-17T07:35:16.593Z,6.38
2023-03-17T07:37:45.298Z,5.25
2023-03-17T07:40:14.143Z,8.63
2023-03-17T07:42:43.573Z,6.70
2023-03-17T07:45:12.926Z,9.55
2023-03-17T07:47:42.695Z,7.38
2023-03-17T07:50:11.673Z,5.10
2023-03-17T07:52:41.042Z,6.93
2023-03-17T07:55:12.499Z,7.07
2023-03-17T07:57:41.573Z,6.57
2023-03-17T08:00:10.731Z,5.10
2023-03-17T08:02:43.241Z,6.18
2023-03-17T08:05:13.364Z,8.50
2023-03-17T08:07:41.902Z,5.07
2023-03-17T08:10:11.654Z,5.55
2023-03-17T08:12:40.198Z,5.75
2023-03-17T08:15:09.367Z,5.38
2023-03-17T08:17:38.114Z,6.95
2023-03-17T08:20:09.742Z,3.83
2023-03-17T08:22:38.201Z,4.25
2023-03-17T08:25:06.997Z,5.63
2023-03-17T08:27:35.470Z,24.13
2023-03-17T08:30:04.279Z,6.05
2023-03-17T08:32:32.722Z,7.55
2023-03-17T08:35:01.624Z,8.60
2023-03-17T08:37:31.560Z,6.47
2023-03-17T08:40:01.050Z,5.97
2023-03-17T08:42:29.544Z,7.93
2023-03-17T08:44:57.936Z,7.00
2023-03-17T08:47:26.373Z,8.80
2023-03-17T08:49:56.309Z,7.27
2023-03-17T08:52:24.677Z,12.93
2023-03-17T08:54:54.593Z,6.87
2023-03-17T08:57:23.184Z,7.33
2023-03-17T08:59:52.665Z,9.10
2023-03-17T09:02:21.428Z,6.37
2023-03-17T09:04:49.900Z,5.33
2023-03-17T09:07:18.293Z,8.63
2023-03-17T09:09:47.717Z,7.47
2023-03-17T09:12:17.481Z,7.80
2023-03-17T09:14:47.423Z,9.13
2023-03-17T09:17:16.502Z,6.60
2023-03-17T09:19:44.984Z,6.33
2023-03-17T09:22:14.793Z,6.23
2023-03-17T09:24:43.524Z,5.97
2023-03-17T09:27:12.154Z,6.03
2023-03-17T09:29:43.269Z,7.10
2023-03-17T09:32:12.950Z,9.47
2023-03-17T09:34:42.038Z,5.93
2023-03-17T09:37:10.940Z,7.70
2023-03-17T09:39:39.410Z,6.23
2023-03-17T09:42:13.833Z,7.03
2023-03-17T09:44:50.082Z,10.23
2023-03-17T09:47:29.973Z,5.03
2023-03-17T09:50:00.296Z,7.37
2023-03-17T09:52:29.946Z,4.33
2023-03-17T09:54:58.857Z,6.30
2023-03-17T09:57:29.047Z,8.37
2023-03-17T10:00:01.528Z,7.63
2023-03-17T10:02:31.648Z,8.10
2023-03-17T10:05:00.628Z,5.47
2023-03-17T10:07:33.871Z,9.45
2023-03-17T10:10:03.628Z,6.95
2023-03-17T10:12:40.600Z,6.72
2023-03-17T10:15:16.322Z,7.25
2023-03-17T10:17:44.735Z,8.80
2023-03-17T10:20:15.813Z,6.90
2023-03-17T10:22:48.108Z,7.97
2023-03-17T10:25:17.828Z,5.68
2023-03-17T10:27:49.024Z,9.45
2023-03-17T10:30:20.496Z,5.18
2023-03-17T10:32:49.281Z,6.03
2023-03-17T10:35:18.130Z,7.15
2023-03-17T10:37:48.181Z,6.70
2023-03-17T10:40:24.505Z,5.82
2023-03-17T10:42:55.158Z,4.47
2023-03-17T10:45:27.897Z,8.40
2023-03-17T10:47:57.885Z,4.20
2023-03-17T10:50:28.795Z,4.68
2023-03-17T10:52:59.491Z,6.13
2023-03-17T10:55:30.103Z,4.80
2023-03-17T10:58:03.160Z,4.93
2023-03-17T11:00:35.353Z,6.03
2023-03-17T11:03:06.343Z,7.70
2023-03-17T11:05:34.720Z,5.50
2023-03-17T11:08:10.453Z,5.55
2023-03-17T11:10:40.284Z,7.15
2023-03-17T11:13:08.739Z,6.15
2023-03-17T11:15:39.684Z,6.40
2023-03-17T11:18:13.553Z,6.13
2023-03-17T11:20:46.244Z,4.82
2023-03-17T11:23:22.297Z,6.47
2023-03-17T11:25:54.301Z,6.43
2023-03-17T11:28:23.915Z,6.78
2023-03-17T11:31:00.489Z,14.20
2023-03-17T11:33:37.044Z,21.58
2023-03-17T11:36:10.629Z,5.18
2023-03-17T11:38:39.838Z,6.82
2023-03-17T11:41:12.215Z,4.88
2023-03-17T11:43:46.900Z,5.10
2023-03-17T11:46:18.001Z,10.32
2023-03-17T11:48:53.334Z,8.55
2023-03-17T11:51:27.667Z,5.47
2023-03-17T11:54:05.079Z,6.85
2023-03-17T11:56:38.507Z,7.25
2023-03-17T11:59:08.213Z,6.10
2023-03-17T12:01:44.205Z,4.88
2023-03-17T12:04:16.474Z,4.22
2023-03-17T12:06:48.803Z,5.82
2023-03-17T12:09:22.274Z,6.97
2023-03-17T12:11:51.877Z,5.15
2023-03-17T12:14:25.029Z,7.30
2023-03-17T12:16:57.052Z,4.97
2023-03-17T12:19:28.000Z,7.03
2023-03-17T12:21:59.300Z,7.40
2023-03-17T12:24:29.846Z,6.72
2023-03-17T12:27:01.777Z,8.80
2023-03-17T12:29:43.099Z,8.07
2023-03-17T12:32:17.008Z,6.60
2023-03-17T12:34:47.233Z,4.13
2023-03-17T12:37:18.236Z,6.18
2023-03-17T12:39:50.289Z,6.18
2023-03-17T12:42:22.908Z,5.72
2023-03-17T12:45:00.272Z,4.72
2023-03-17T12:47:46.580Z,5.68
2023-03-17T12:50:29.913Z,6.57
2023-03-17T12:53:18.083Z,5.72
2023-03-17T12:55:47.916Z,6.18
2023-03-17T12:58:26.404Z,4.45
2023-03-17T13:00:59.076Z,7.38
2023-03-17T13:03:28.293Z,5.53
2023-03-17T13:06:02.422Z,4.15
2023-03-17T13:08:33.742Z,4.65
2023-03-17T13:11:27.876Z,4.97
2023-03-17T13:14:08.617Z,8.63
2023-03-17T13:16:41.020Z,5.65
2023-03-17T13:19:18.736Z,8.88
2023-03-17T13:21:47.837Z,5.97
2023-03-17T13:24:46.999Z,5.57
2023-03-17T13:27:15.979Z,5.40
2023-03-17T13:29:48.898Z,6.90
2023-03-17T13:32:34.917Z,5.10
2023-03-17T13:35:16.838Z,9.15
2023-03-17T13:37:54.138Z,5.15
2023-03-17T13:40:26.150Z,5.35
2023-03-17T13:43:05.036Z,4.75
2023-03-17T13:45:38.333Z,4.88
2023-03-17T13:48:34.225Z,5.25
2023-03-17T13:51:03.847Z,6.68
2023-03-17T13:53:35.026Z,4.93
2023-03-17T13:56:21.159Z,5.60
2023-03-17T13:58:58.972Z,5.28
2023-03-17T14:01:28.182Z,4.25
2023-03-17T14:03:57.592Z,6.45
2023-03-17T14:06:28.100Z,5.15
2023-03-17T14:09:04.893Z,5.50
2023-03-17T14:11:35.056Z,5.75
2023-03-17T14:14:32.607Z,4.57
2023-03-17T14:17:06.508Z,5.53
2023-03-17T14:19:39.097Z,4.95
2023-03-17T14:22:20.648Z,5.18
2023-03-17T14:24:52.871Z,5.18
2023-03-17T14:27:21.733Z,5.78
2023-03-17T14:29:50.376Z,7.43
2023-03-17T14:32:21.533Z,5.43
2023-03-17T14:34:53.032Z,3.35
2023-03-17T14:37:22.023Z,6.80
2023-03-17T14:39:52.706Z,6.88
2023-03-17T14:42:22.272Z,5.45
2023-03-17T14:44:50.733Z,5.88
2023-03-17T14:47:21.817Z,9.10
2023-03-17T14:49:50.728Z,6.72
2023-03-17T14:52:22.992Z,5.95
2023-03-17T14:54:53.543Z,7.10
2023-03-17T14:57:23.760Z,7.40
2023-03-17T14:59:59.791Z,9.68
2023-03-17T15:02:34.247Z,4.45
2023-03-17T15:05:05.543Z,5.50
2023-03-17T15:07:37.649Z,5.30
2023-03-17T15:10:07.418Z,6.28
2023-03-17T15:12:36.105Z,5.22
2023-03-17T15:15:06.712Z,6.30
2023-03-17T15:17:37.654Z,6.13
2023-03-17T15:20:07.534Z,6.38
2023-03-17T15:22:42.791Z,8.32
2023-03-17T15:25:21.317Z,8.80
2023-03-17T15:27:50.719Z,7.82
2023-03-17T15:30:22.430Z,9.00
2023-03-17T15:33:05.267Z,6.07
2023-03-17T15:35:44.270Z,6.07
2023-03-17T15:38:14.381Z,5.13
2023-03-17T15:40:42.818Z,6.25
2023-03-17T15:43:15.448Z,5.40
2023-03-17T15:45:45.329Z,7.07
2023-03-17T15:48:17.940Z,5.07
2023-03-17T15:50:47.164Z,5.57
2023-03-17T15:53:16.592Z,7.47
2023-03-17T15:55:45.113Z,4.67
2023-03-17T15:58:13.516Z,9.87
2023-03-17T16:00:42.554Z,6.90
2023-03-17T16:03:17.112Z,7.73
2023-03-17T16:05:46.848Z,6.80
2023-03-17T16:08:17.856Z,7.07
2023-03-17T16:10:46.720Z,5.87
2023-03-17T16:13:16.128Z,7.77
2023-03-17T16:15:45.300Z,7.97
2023-03-17T16:18:16.796Z,8.83
2023-03-17T16:20:48.215Z,13.23
2023-03-17T16:23:18.404Z,10.20
2023-03-17T16:25:47.165Z,10.17
2023-03-17T16:28:17.238Z,8.13
2023-03-17T16:30:46.240Z,10.03
2023-03-17T16:33:17.300Z,9.27
2023-03-17T16:35:49.283Z,8.20
2023-03-17T16:38:18.511Z,9.23
2023-03-17T16:40:48.012Z,6.93
2023-03-17T16:43:25.088Z,8.83
2023-03-17T16:45:55.371Z,9.47
2023-03-17T16:48:23.841Z,8.23
2023-03-17T16:50:53.578Z,10.77
2023-03-17T16:53:22.117Z,9.23
2023-03-17T16:55:51.237Z,9.03
2023-03-17T16:58:20.647Z,10.47
2023-03-17T17:00:49.878Z,10.57
2023-03-17T17:03:18.480Z,9.87
2023-03-17T17:05:46.923Z,8.60
2023-03-17T17:08:17.147Z,9.17
2023-03-17T17:10:45.693Z,6.47
2023-03-17T17:13:14.455Z,9.57
2023-03-17T17:15:44.313Z,9.40
2023-03-17T17:18:15.520Z,7.93
2023-03-17T17:20:44.686Z,8.53
2023-03-17T17:23:14.449Z,9.90
2023-03-17T17:25:44.574Z,14.27
2023-03-17T17:28:13.697Z,16.80
2023-03-17T17:30:45.121Z,11.90
2023-03-17T17:33:14.354Z,10.20
2023-03-17T17:35:43.304Z,8.20
2023-03-17T17:38:17.589Z,10.67
2023-03-17T17:40:47.609Z,12.40
2023-03-17T17:43:18.213Z,11.87
2023-03-17T17:45:48.577Z,11.50
2023-03-17T17:48:18.116Z,10.33
2023-03-17T17:50:46.753Z,15.40
2023-03-17T17:53:15.445Z,9.63
2023-03-17T17:55:45.467Z,10.10
2023-03-17T17:58:16.515Z,11.90
2023-03-17T18:00:45.336Z,12.60
2023-03-17T18:03:13.915Z,10.67
2023-03-17T18:05:42.433Z,13.10
2023-03-17T18:08:13.070Z,10.40
2023-03-17T18:10:41.914Z,11.70
2023-03-17T18:13:10.956Z,12.70
2023-03-17T18:15:41.600Z,12.47
2023-03-17T18:18:12.153Z,14.17
2023-03-17T18:20:40.902Z,11.60
2023-03-17T18:23:09.892Z,13.47
2023-03-17T18:25:38.385Z,11.40
2023-03-17T18:28:08.084Z,13.43
2023-03-17T18:30:41.367Z,15.93
2023-03-17T18:33:12.046Z,14.97
2023-03-17T18:35:40.571Z,20.37
2023-03-17T18:38:09.077Z,17.07
2023-03-17T18:40:38.031Z,16.20
2023-03-17T18:43:06.641Z,19.00
2023-03-17T18:45:35.168Z,18.87
2023-03-17T18:48:05.118Z,16.97
2023-03-17T18:50:33.921Z,23.20
2023-03-17T18:53:02.496Z,17.73
2023-03-17T18:55:31.230Z,20.43
2023-03-17T18:57:59.884Z,14.93
2023-03-17T19:00:28.653Z,16.97
2023-03-17T19:02:58.318Z,16.13
2023-03-17T19:05:28.514Z,15.73
2023-03-17T19:07:56.944Z,22.27
2023-03-17T19:10:26.006Z,21.50
2023-03-17T19:12:54.873Z,22.50
2023-03-17T19:15:23.532Z,22.30
2023-03-17T19:17:52.341Z,24.00
2023-03-17T19:20:21.203Z,25.17
2023-03-17T19:22:53.285Z,21.37
2023-03-17T19:25:22.169Z,23.33
2023-03-17T19:27:50.646Z,23.67
2023-03-17T19:30:19.132Z,21.10
2023-03-17T19:32:47.620Z,20.07
2023-03-17T19:35:16.102Z,24.67
2023-03-17T19:37:44.578Z,22.93
2023-03-17T19:40:15.284Z,37.43
2023-03-17T19:42:43.694Z,18.83
2023-03-17T19:45:12.360Z,32.57
2023-03-17T19:47:40.887Z,23.43
2023-03-17T19:50:10.000Z,26.43
2023-03-17T19:52:38.494Z,26.13
2023-03-17T19:55:08.394Z,28.13
2023-03-17T19:57:38.337Z,21.13
2023-03-17T20:00:08.918Z,22.30
2023-03-17T20:02:39.374Z,28.13
2023-03-17T20:05:08.636Z,25.37
2023-03-17T20:07:37.544Z,26.20
2023-03-17T20:10:06.614Z,18.03
2023-03-17T20:12:37.565Z,22.67
2023-03-17T20:15:08.572Z,21.33
2023-03-17T20:17:37.451Z,17.50
2023-03-17T20:20:07.379Z,22.93
2023-03-17T20:22:35.973Z,17.37
2023-03-17T20:25:04.883Z,16.97
2023-03-17T20:27:35.883Z,15.33
2023-03-17T20:30:04.661Z,11.80
2023-03-17T20:32:34.500Z,14.53
2023-03-17T20:35:03.020Z,12.10
2023-03-17T20:37:31.972Z,12.20
2023-03-17T20:40:04.724Z,19.90
2023-03-17T20:42:33.647Z,22.20
2023-03-17T20:45:03.580Z,22.00
2023-03-17T20:47:32.303Z,25.73
2023-03-17T20:50:02.224Z,27.63
2023-03-17T20:52:30.756Z,27.53
2023-03-17T20:55:00.228Z,25.30
2023-03-17T20:57:28.789Z,24.17
2023-03-17T20:59:58.162Z,18.37
2023-03-17T21:02:26.561Z,28.33
2023-03-17T21:04:54.971Z,23.97
2023-03-17T21:07:24.754Z,19.50
2023-03-17T21:09:56.485Z,24.27
2023-03-17T21:12:26.194Z,22.40
2023-03-17T21:14:54.666Z,20.43
2023-03-17T21:17:24.496Z,19.93
2023-03-17T21:19:54.605Z,18.73
2023-03-17T21:22:24.568Z,21.37
2023-03-17T21:24:53.139Z,17.83
2023-03-17T21:27:21.661Z,19.07
2023-03-17T21:29:50.256Z,19.57
2023-03-17T21:32:18.755Z,24.73
2023-03-17T21:34:48.325Z,20.67
2023-03-17T21:37:18.293Z,20.60
2023-03-17T21:39:48.818Z,24.43
2023-03-17T21:42:17.282Z,27.47
2023-03-17T21:44:48.289Z,25.33
2023-03-17T21:47:16.981Z,26.47
2023-03-17T21:49:45.668Z,25.33
2023-03-17T21:52:14.988Z,26.57
2023-03-17T21:54:43.883Z,31.57
2023-03-17T21:57:13.712Z,26.27
2023-03-17T21:59:42.387Z,30.80
2023-03-17T22:02:12.714Z,21.77
2023-03-17T22:04:41.705Z,20.50
2023-03-17T22:07:10.133Z,18.57
2023-03-17T22:09:38.848Z,24.10
2023-03-17T22:12:07.918Z,26.57
2023-03-17T22:14:37.967Z,24.90
2023-03-17T22:17:06.747Z,21.03
2023-03-17T22:19:35.213Z,21.17
2023-03-17T22:22:03.897Z,29.03
2023-03-17T22:24:32.689Z,23.60
2023-03-17T22:27:01.331Z,22.80
2023-03-17T22:29:30.439Z,19.87
2023-03-17T22:32:01.381Z,21.13
2023-03-17T22:34:29.961Z,25.87
2023-03-17T22:36:58.520Z,26.77
2023-03-17T22:39:27.853Z,23.43
2023-03-17T22:41:56.411Z,20.97
2023-03-17T22:44:24.964Z,19.30
2023-03-17T22:46:53.338Z,20.33
2023-03-17T22:49:23.781Z,25.13
2023-03-17T22:51:52.193Z,24.97
2023-03-17T22:54:22.020Z,25.43
2023-03-17T22:56:50.693Z,23.97
2023-03-17T22:59:19.127Z,23.07
2023-03-17T23:01:47.582Z,22.97
2023-03-17T23:04:16.670Z,30.20
2023-03-17T23:06:46.641Z,26.07
2023-03-17T23:09:15.343Z,23.13
2023-03-17T23:11:43.735Z,23.63
2023-03-17T23:14:13.168Z,24.27
2023-03-17T23:16:41.699Z,26.37
2023-03-17T23:19:10.210Z,23.83
2023-03-17T23:21:39.618Z,21.80
2023-03-17T23:24:09.935Z,22.77
2023-03-17T23:26:38.917Z,22.27
2023-03-17T23:29:08.553Z,23.27
2023-03-17T23:31:38.274Z,24.27
2023-03-17T23:34:07.598Z,19.70
2023-03-17T23:36:40.022Z,18.53
2023-03-17T23:39:10.363Z,20.60
2023-03-17T23:41:38.939Z,24.57
2023-03-17T23:44:07.389Z,22.70
2023-03-17T23:46:36.652Z,20.50
2023-03-17T23:49:07.261Z,18.53
2023-03-17T23:51:36.254Z,23.13
2023-03-17T23:54:05.919Z,21.00
2023-03-17T23:56:35.764Z,21.53
2023-03-17T23:59:07.553Z,20.33
